Time;durP1;ratioP1;P1;durP2;ratioP2;P2;SDS_P1;SDS_P2;PMS_P1;PMS_P2;Temp;Humidity;BMP_temperature;BMP_pressure;BME280_temperature;BME280_humidity;BME280_pressure;Samples;Min_cycle;Max_cycle;Signal;HPM_P1;HPM_P2
2023/01/01 00:02:14;;;;;;;24.38;10.32;;;14.20;99.90;;;;;;5048132;28;20088;-82
2023/01/01 00:04:41;;;;;;;28.70;11.88;;;14.20;99.90;;;;;;5046272;28;20041;-82
2023/01/01 00:07:07;;;;;;;23.67;10.38;;;14.20;99.90;;;;;;5030203;28;20561;-81
2023/01/01 00:12:17;;;;;;;21.48;8.82;;;14.20;99.90;;;;;;5047178;28;20051;-82
2023/01/01 00:14:43;;;;;;;25.00;11.75;;;14.20;99.90;;;;;;5013354;28;20041;-82
2023/01/01 00:17:09;;;;;;;29.75;12.48;;;14.20;99.90;;;;;;5046110;28;20072;-83
2023/01/01 00:19:35;;;;;;;24.30;9.13;;;14.20;99.90;;;;;;5047740;28;20056;-81
2023/01/01 00:22:00;;;;;;;21.00;8.65;;;14.20;99.90;;;;;;5027200;28;20061;-81
2023/01/01 00:24:26;;;;;;;19.00;8.20;;;14.20;99.90;;;;;;5047949;28;20048;-81
2023/01/01 00:26:52;;;;;;;23.05;7.65;;;14.20;99.90;;;;;;5046970;28;20057;-81
2023/01/01 00:29:17;;;;;;;20.50;7.50;;;14.20;99.90;;;;;;5047716;28;20041;-80
2023/01/01 00:31:44;;;;;;;24.13;9.10;;;14.10;99.90;;;;;;5047518;28;20041;-81
2023/01/01 00:34:10;;;;;;;14.85;6.65;;;14.10;99.90;;;;;;5046161;28;20048;-81
2023/01/01 00:36:36;;;;;;;16.42;7.30;;;14.10;99.90;;;;;;5029756;28;20050;-81
2023/01/01 00:39:02;;;;;;;22.38;8.27;;;14.00;99.90;;;;;;5046063;28;20045;-81
2023/01/01 00:41:28;;;;;;;23.95;8.48;;;14.00;99.90;;;;;;5013247;28;20045;-81
2023/01/01 00:43:53;;;;;;;22.05;9.32;;;13.90;99.90;;;;;;5028629;28;20041;-83
2023/01/01 00:46:19;;;;;;;20.08;9.10;;;13.90;99.90;;;;;;5029079;28;20054;-88
2023/01/01 00:48:45;;;;;;;18.25;9.38;;;13.90;99.90;;;;;;5029118;28;20103;-88
2023/01/01 00:51:11;;;;;;;33.38;14.23;;;13.80;99.90;;;;;;5011610;28;20045;-86
2023/01/01 00:53:37;;;;;;;34.92;13.23;;;13.80;99.90;;;;;;5029512;28;20049;-86
2023/01/01 00:56:03;;;;;;;20.67;9.07;;;13.90;99.90;;;;;;5027696;28;20052;-87
2023/01/01 00:58:29;;;;;;;20.92;10.23;;;13.80;99.90;;;;;;5029451;28;20053;-87
2023/01/01 01:00:55;;;;;;;23.27;10.02;;;13.80;99.90;;;;;;5023647;28;20060;-87
2023/01/01 01:03:27;;;;;;;20.45;11.23;;;13.80;99.90;;;;;;5025597;28;20132;-87
2023/01/01 01:06:03;;;;;;;24.33;11.20;;;13.80;99.90;;;;;;5025743;28;20557;-88
2023/01/01 01:08:31;;;;;;;35.60;13.23;;;13.80;99.90;;;;;;5024309;28;20540;-88
2023/01/01 01:11:24;;;;;;;25.20;13.30;;;13.80;99.90;;;;;;5009358;28;20042;-86
2023/01/01 01:13:52;;;;;;;22.73;13.55;;;13.70;99.90;;;;;;5024696;28;20091;-87
2023/01/01 01:16:19;;;;;;;32.90;16.23;;;13.60;99.90;;;;;;5025437;28;20135;-87
2023/01/01 01:18:46;;;;;;;31.70;16.38;;;13.60;99.90;;;;;;5008492;28;20049;-88
2023/01/01 01:21:16;;;;;;;29.38;15.05;;;13.50;99.90;;;;;;5023959;28;20133;-87
2023/01/01 01:23:42;;;;;;;31.05;16.15;;;13.50;99.90;;;;;;5025372;28;20128;-87
2023/01/01 01:26:20;;;;;;;31.40;18.48;;;13.40;99.90;;;;;;5024258;28;20098;-87
2023/01/01 01:28:46;;;;;;;43.78;20.92;;;13.50;99.90;;;;;;5025346;28;20499;-88
2023/01/01 01:31:12;;;;;;;36.13;19.92;;;13.50;99.90;;;;;;5007913;28;20128;-87
2023/01/01 01:33:38;;;;;;;40.72;23.02;;;13.40;99.90;;;;;;5008161;28;20068;-87
2023/01/01 01:36:05;;;;;;;39.78;21.10;;;13.40;99.90;;;;;;5008663;28;20489;-88
2023/01/01 01:38:31;;;;;;;36.45;20.25;;;13.30;99.90;;;;;;4991138;28;20131;-88
2023/01/01 01:40:57;;;;;;;37.35;21.80;;;13.30;99.90;;;;;;5009014;28;20049;-86
2023/01/01 01:43:56;;;;;;;35.95;22.02;;;13.20;99.90;;;;;;5007895;28;20091;-87
2023/01/01 01:46:28;;;;;;;52.30;26.40;;;13.20;99.90;;;;;;5027765;28;20080;-88
2023/01/01 01:48:55;;;;;;;48.20;27.13;;;13.10;99.90;;;;;;5028637;28;20055;-89
2023/01/01 01:51:30;;;;;;;45.75;24.90;;;13.10;99.90;;;;;;5025885;28;20574;-89
2023/01/01 01:54:01;;;;;;;43.50;25.40;;;13.00;99.90;;;;;;5026520;28;20651;-89
2023/01/01 01:56:45;;;;;;;56.60;26.08;;;12.90;99.90;;;;;;5024335;28;20057;-90
2023/01/01 01:59:11;;;;;;;44.42;24.50;;;12.90;99.90;;;;;;5025171;28;20409;-88
2023/01/01 02:01:37;;;;;;;44.03;23.85;;;12.90;99.90;;;;;;5008232;28;20060;-90
2023/01/01 02:04:04;;;;;;;41.55;25.30;;;12.90;99.90;;;;;;5024200;28;20140;-91
2023/01/01 02:06:31;;;;;;;47.28;25.25;;;12.80;99.90;;;;;;5026356;28;20049;-93
2023/01/01 02:09:00;;;;;;;44.47;26.00;;;12.80;99.90;;;;;;5025306;28;20042;-90
2023/01/01 02:11:26;;;;;;;44.50;25.98;;;12.80;99.90;;;;;;5025950;28;20493;-90
2023/01/01 02:13:54;;;;;;;45.30;27.25;;;12.70;99.90;;;;;;5028051;28;20366;-90
2023/01/01 02:16:23;;;;;;;42.97;26.92;;;12.70;99.90;;;;;;5029041;28;20103;-89
2023/01/01 02:19:10;;;;;;;41.85;26.42;;;12.70;99.90;;;;;;5012241;28;20516;-88
2023/01/01 02:22:02;;;;;;;50.05;29.50;;;12.70;99.90;;;;;;5027714;28;20057;-89
2023/01/01 02:24:31;;;;;;;44.57;28.50;;;12.70;99.90;;;;;;5013021;28;20049;-89
2023/01/01 02:27:07;;;;;;;42.75;27.40;;;12.60;99.90;;;;;;5011356;28;20288;-88
2023/01/01 02:29:36;;;;;;;41.67;27.65;;;12.60;99.90;;;;;;5028045;28;20560;-88
2023/01/01 02:32:25;;;;;;;45.30;26.55;;;12.60;99.90;;;;;;5011990;28;20060;-88
2023/01/01 02:35:33;;;;;;;43.17;26.17;;;12.60;99.90;;;;;;5003566;28;20080;-87
2023/01/01 02:37:49;;;;;;;49.70;27.35;;;12.60;99.90;;;;;;5027737;28;20049;-88
2023/01/01 02:40:17;;;;;;;42.85;25.25;;;12.60;99.90;;;;;;5028811;28;20041;-87
2023/01/01 02:42:44;;;;;;;52.03;24.98;;;12.70;99.90;;;;;;5010880;28;20044;-88
2023/01/01 02:45:10;;;;;;;39.33;22.48;;;12.60;99.90;;;;;;4996298;28;20052;-89
2023/01/01 02:47:37;;;;;;;43.70;26.08;;;12.70;99.90;;;;;;5027419;28;20111;-87
2023/01/01 02:50:17;;;;;;;47.80;24.67;;;12.70;99.90;;;;;;5012100;28;20073;-89
2023/01/01 02:53:12;;;;;;;35.25;23.60;;;12.60;99.90;;;;;;5010950;28;20506;-89
2023/01/01 02:55:51;;;;;;;51.00;23.10;;;12.60;99.90;;;;;;5008941;28;20519;-88
2023/01/01 03:01:25;;;;;;;36.55;22.23;;;12.60;99.90;;;;;;5027015;28;20064;-88
2023/01/01 03:04:04;;;;;;;42.75;24.05;;;12.50;99.90;;;;;;5027378;28;20049;-88
2023/01/01 03:06:41;;;;;;;45.67;22.88;;;12.50;99.90;;;;;;5011651;28;20444;-88
2023/01/01 03:09:26;;;;;;;40.63;22.98;;;13.00;99.90;;;;;;5026989;28;20046;-88
2023/01/01 03:12:13;;;;;;;37.55;22.73;;;12.40;99.90;;;;;;5027909;28;20057;-87
2023/01/01 03:14:50;;;;;;;36.42;22.90;;;12.40;99.90;;;;;;5011843;28;20049;-87
2023/01/01 03:17:34;;;;;;;35.17;21.58;;;12.40;99.90;;;;;;5027845;28;20409;-87
2023/01/01 03:20:06;;;;;;;39.50;21.52;;;12.30;99.90;;;;;;5028483;28;20054;-88
2023/01/01 03:22:35;;;;;;;35.53;21.15;;;12.30;99.90;;;;;;5026700;28;20053;-87
2023/01/01 03:25:06;;;;;;;34.33;18.70;;;12.40;99.90;;;;;;5010197;28;20048;-90
2023/01/01 03:27:41;;;;;;;32.67;17.30;;;12.20;99.90;;;;;;5010976;28;20040;-86
2023/01/01 03:30:09;;;;;;;26.50;14.90;;;11.30;99.90;;;;;;5026595;28;20392;-87
2023/01/01 03:32:59;;;;;;;25.27;14.60;;;12.20;99.90;;;;;;5011514;28;20112;-86
2023/01/01 03:35:32;;;;;;;26.83;14.20;;;12.10;99.90;;;;;;5010650;28;20498;-86
2023/01/01 03:38:00;;;;;;;39.65;19.92;;;12.10;99.90;;;;;;5010570;28;20041;-89
2023/01/01 03:40:27;;;;;;;37.72;19.13;;;12.00;99.90;;;;;;5027617;28;20107;-86
2023/01/01 03:42:58;;;;;;;22.95;11.88;;;11.90;99.90;;;;;;5009224;28;20098;-84
2023/01/01 03:45:32;;;;;;;19.20;9.63;;;11.90;99.90;;;;;;5027513;28;20128;-84
2023/01/01 03:47:59;;;;;;;16.85;8.48;;;11.90;99.90;;;;;;5009501;28;20053;-85
2023/01/01 03:50:45;;;;;;;22.50;7.40;;;11.80;99.90;;;;;;5010576;28;20046;-86
2023/01/01 03:53:36;;;;;;;18.85;8.25;;;11.80;99.90;;;;;;5026976;28;20049;-85
2023/01/01 03:56:18;;;;;;;12.85;7.03;;;11.80;99.90;;;;;;5025316;28;20049;-86
2023/01/01 03:59:05;;;;;;;13.55;5.82;;;11.80;99.90;;;;;;5010739;28;20095;-85
2023/01/01 04:01:39;;;;;;;16.38;7.10;;;11.80;99.90;;;;;;5009889;28;20064;-86
2023/01/01 04:04:06;;;;;;;18.40;7.53;;;11.80;99.90;;;;;;5009169;28;20049;-85
2023/01/01 04:06:33;;;;;;;19.58;6.00;;;11.80;99.90;;;;;;5026941;28;20045;-84
2023/01/01 04:09:00;;;;;;;14.13;6.38;;;11.80;99.90;;;;;;5008857;28;20037;-85
2023/01/01 04:14:13;;;;;;;12.18;5.65;;;11.80;99.90;;;;;;5026391;28;20467;-83
2023/01/01 04:16:39;;;;;;;8.40;4.18;;;11.80;99.90;;;;;;5025488;28;20049;-84
2023/01/01 04:19:07;;;;;;;18.40;5.40;;;11.80;99.90;;;;;;5009968;28;20051;-83
2023/01/01 04:21:33;;;;;;;10.20;4.13;;;11.80;99.90;;;;;;5024698;28;20550;-84
2023/01/01 04:23:59;;;;;;;17.55;4.53;;;11.80;99.90;;;;;;5010301;28;20041;-84
2023/01/01 04:26:24;;;;;;;10.63;4.10;;;11.90;99.90;;;;;;5009072;28;20038;-84
2023/01/01 04:28:50;;;;;;;15.35;4.97;;;12.00;99.90;;;;;;5009921;28;20037;-83
2023/01/01 04:31:16;;;;;;;11.07;3.35;;;12.00;99.90;;;;;;5009037;28;20088;-83
2023/01/01 04:33:41;;;;;;;10.18;2.83;;;11.90;99.90;;;;;;4992850;28;20056;-84
2023/01/01 04:36:09;;;;;;;12.32;2.90;;;11.90;99.90;;;;;;5009907;28;20072;-84
2023/01/01 04:38:35;;;;;;;15.30;4.80;;;12.00;99.90;;;;;;4992160;28;20038;-84
2023/01/01 04:41:02;;;;;;;15.38;3.08;;;12.00;99.90;;;;;;5010440;28;20045;-84
2023/01/01 04:43:29;;;;;;;14.55;3.08;;;12.00;99.90;;;;;;5024794;28;20073;-83
2023/01/01 04:45:59;;;;;;;19.45;3.78;;;12.00;99.90;;;;;;5026444;28;20058;-84
2023/01/01 04:48:26;;;;;;;17.88;3.45;;;11.90;99.90;;;;;;5008810;28;20049;-84
2023/01/01 04:51:03;;;;;;;17.98;4.10;;;11.90;99.90;;;;;;5008716;28;20052;-84
2023/01/01 04:53:31;;;;;;;12.50;3.55;;;11.90;99.90;;;;;;5026472;28;20374;-84
2023/01/01 04:56:04;;;;;;;17.25;3.30;;;11.90;99.90;;;;;;5024593;28;20042;-83
2023/01/01 04:58:30;;;;;;;;;;;11.90;99.90;;;;;;5026929;28;20250;-83
2023/01/01 05:00:56;;;;;;;14.55;3.95;;;11.90;99.90;;;;;;5008399;28;19921;-84
2023/01/01 05:03:21;;;;;;;15.93;4.43;;;11.80;99.90;;;;;;4993152;28;20850;-83
2023/01/01 05:05:49;;;;;;;16.40;4.50;;;11.80;99.90;;;;;;5025477;28;20045;-83
2023/01/01 05:08:14;;;;;;;21.00;3.60;;;11.80;99.90;;;;;;5008565;28;20396;-83
2023/01/01 05:10:40;;;;;;;13.02;4.28;;;12.10;99.90;;;;;;4993041;28;20041;-83
2023/01/01 05:13:08;;;;;;;19.95;4.10;;;11.80;99.90;;;;;;5025204;28;20046;-84
2023/01/01 05:15:37;;;;;;;9.90;3.50;;;11.90;99.90;;;;;;5026301;28;20401;-83
2023/01/01 05:18:03;;;;;;;14.48;3.67;;;11.80;99.90;;;;;;4991594;28;20136;-83
2023/01/01 05:20:29;;;;;;;11.00;2.65;;;11.90;99.90;;;;;;5025157;28;20464;-83
2023/01/01 05:22:54;;;;;;;11.70;3.58;;;11.90;99.90;;;;;;5008742;28;20048;-83
2023/01/01 05:25:20;;;;;;;16.45;3.28;;;11.90;99.90;;;;;;5007582;28;20042;-81
2023/01/01 05:27:45;;;;;;;13.20;3.03;;;12.10;99.90;;;;;;5009348;28;20045;-81
2023/01/01 05:30:11;;;;;;;9.88;2.55;;;11.90;99.90;;;;;;4990841;28;20052;-80
2023/01/01 05:32:37;;;;;;;10.85;2.53;;;12.00;99.90;;;;;;5025476;28;20451;-79
2023/01/01 05:35:03;;;;;;;13.60;2.60;;;11.90;99.90;;;;;;5025532;28;20084;-81
2023/01/01 05:37:28;;;;;;;9.52;3.60;;;11.90;99.90;;;;;;5025586;28;20527;-81
2023/01/01 05:39:54;;;;;;;11.85;1.98;;;12.00;99.90;;;;;;5026309;28;20123;-81
2023/01/01 05:42:20;;;;;;;9.70;2.00;;;12.00;99.90;;;;;;5024061;28;20046;-80
2023/01/01 05:44:45;;;;;;;7.18;1.60;;;12.00;99.90;;;;;;5025610;28;20049;-80
2023/01/01 05:47:11;;;;;;;8.00;2.10;;;12.00;99.90;;;;;;5022944;28;20386;-81
2023/01/01 05:49:38;;;;;;;12.43;1.75;;;12.00;99.90;;;;;;5025460;28;20527;-80
2023/01/01 05:52:04;;;;;;;7.93;1.80;;;12.10;99.90;;;;;;5023995;28;20136;-81
2023/01/01 05:54:29;;;;;;;11.93;1.77;;;12.10;99.90;;;;;;5026629;28;20136;-81
2023/01/01 05:56:55;;;;;;;8.85;1.75;;;12.00;99.90;;;;;;4992044;28;20041;-81
2023/01/01 05:59:21;;;;;;;13.82;2.78;;;12.10;99.90;;;;;;5024419;28;20671;-81
2023/01/01 06:01:46;;;;;;;7.30;1.75;;;12.10;99.90;;;;;;5025271;28;20062;-80
2023/01/01 06:04:12;;;;;;;9.18;1.73;;;12.00;99.90;;;;;;5024823;28;20112;-81
2023/01/01 06:06:38;;;;;;;10.63;1.98;;;12.00;99.90;;;;;;5025542;28;20053;-81
2023/01/01 06:09:04;;;;;;;11.48;1.63;;;12.00;99.90;;;;;;4991473;28;20045;-81
2023/01/01 06:11:31;;;;;;;8.27;1.90;;;12.00;99.90;;;;;;5009358;28;20393;-81
2023/01/01 06:13:59;;;;;;;9.88;1.92;;;12.00;99.90;;;;;;4991031;28;20493;-81
2023/01/01 06:16:26;;;;;;;15.85;2.55;;;12.00;99.90;;;;;;5024347;28;20077;-81
2023/01/01 06:18:51;;;;;;;6.18;1.63;;;11.90;99.90;;;;;;5008615;28;20088;-81
2023/01/01 06:21:20;;;;;;;11.82;2.72;;;11.90;99.90;;;;;;4990928;28;20096;-81
2023/01/01 06:23:46;;;;;;;6.50;1.10;;;11.90;99.90;;;;;;5008910;28;20050;-81
2023/01/01 06:26:15;;;;;;;10.70;1.27;;;11.90;99.90;;;;;;5007015;28;20113;-81
2023/01/01 06:28:41;;;;;;;7.18;1.52;;;11.90;99.90;;;;;;5025198;28;20042;-81
2023/01/01 06:31:10;;;;;;;8.20;1.10;;;11.80;99.90;;;;;;5024383;28;20041;-81
2023/01/01 06:33:37;;;;;;;9.00;1.42;;;11.80;99.90;;;;;;5024319;28;20034;-81
2023/01/01 06:36:05;;;;;;;10.95;2.42;;;11.80;99.90;;;;;;5025604;28;20193;-81
2023/01/01 06:38:33;;;;;;;6.30;1.10;;;11.80;99.90;;;;;;5025465;28;20166;-81
2023/01/01 06:41:01;;;;;;;7.70;0.98;;;11.80;99.90;;;;;;5008936;28;20049;-82
2023/01/01 06:43:29;;;;;;;6.72;1.00;;;11.80;99.90;;;;;;5024107;28;20041;-82
2023/01/01 06:46:03;;;;;;;12.93;1.52;;;11.70;99.90;;;;;;5025014;28;20493;-82
2023/01/01 06:48:33;;;;;;;10.55;0.95;;;11.80;99.90;;;;;;5024506;28;20045;-82
2023/01/01 06:51:05;;;;;;;11.80;2.10;;;11.80;99.90;;;;;;5025241;28;20128;-82
2023/01/01 06:53:31;;;;;;;15.48;1.35;;;11.70;99.90;;;;;;5024955;28;20083;-81
2023/01/01 06:55:56;;;;;;;7.85;1.42;;;11.70;99.90;;;;;;4990231;28;20045;-81
2023/01/01 06:58:22;;;;;;;14.43;1.45;;;11.70;99.90;;;;;;4976283;28;20113;-82
2023/01/01 07:00:48;;;;;;;15.07;1.33;;;11.70;99.90;;;;;;5029237;28;20071;-82
2023/01/01 07:03:13;;;;;;;10.73;1.92;;;11.70;99.90;;;;;;5049291;28;20060;-82
2023/01/01 07:05:39;;;;;;;8.70;1.15;;;11.70;99.90;;;;;;5031090;28;20041;-82
2023/01/01 07:08:05;;;;;;;10.98;1.95;;;11.60;99.90;;;;;;5048182;28;20442;-82
2023/01/01 07:10:31;;;;;;;10.68;1.33;;;11.60;99.90;;;;;;5049532;28;20040;-82
2023/01/01 07:12:56;;;;;;;10.60;1.20;;;11.00;99.90;;;;;;5029478;28;20052;-82
2023/01/01 07:15:22;;;;;;;14.02;1.70;;;11.60;99.90;;;;;;5015356;28;20037;-82
2023/01/01 07:17:48;;;;;;;10.68;1.58;;;11.60;99.90;;;;;;5047965;28;20094;-83
2023/01/01 07:20:13;;;;;;;9.13;1.40;;;11.60;99.90;;;;;;5014584;28;20139;-83
2023/01/01 07:22:39;;;;;;;21.35;2.75;;;11.60;99.90;;;;;;5030732;28;20048;-82
2023/01/01 07:25:06;;;;;;;6.40;1.75;;;11.50;99.90;;;;;;5013707;28;20413;-82
2023/01/01 07:27:32;;;;;;;12.15;1.73;;;11.50;99.90;;;;;;5031598;28;20041;-83
2023/01/01 07:29:58;;;;;;;11.23;1.30;;;11.50;99.90;;;;;;5014667;28;20412;-84
2023/01/01 07:32:23;;;;;;;17.13;2.80;;;11.50;99.90;;;;;;4999883;28;20460;-84
2023/01/01 07:34:49;;;;;;;11.30;1.55;;;11.50;99.90;;;;;;5012922;28;20498;-83
2023/01/01 07:37:15;;;;;;;10.95;1.83;;;11.40;99.90;;;;;;5014201;28;20492;-83
2023/01/01 07:39:40;;;;;;;15.82;2.00;;;11.40;99.90;;;;;;5030067;28;20064;-83
2023/01/01 07:42:06;;;;;;;24.60;3.80;;;11.40;99.90;;;;;;5013701;28;20048;-83
2023/01/01 07:44:32;;;;;;;19.25;2.50;;;11.40;99.90;;;;;;5014351;28;20048;-83
2023/01/01 07:47:04;;;;;;;20.40;2.75;;;11.40;99.90;;;;;;5028985;28;20821;-83
2023/01/01 07:49:30;;;;;;;23.08;2.95;;;11.40;99.90;;;;;;5014205;28;20084;-83
2023/01/01 07:51:56;;;;;;;14.85;3.15;;;11.40;99.90;;;;;;5012922;28;20080;-83
2023/01/01 07:54:21;;;;;;;13.52;2.30;;;11.30;99.90;;;;;;4997605;28;20512;-82
2023/01/01 07:56:50;;;;;;;13.73;2.38;;;11.30;99.90;;;;;;5013228;28;20044;-83
2023/01/01 07:59:16;;;;;;;17.70;2.88;;;11.40;99.90;;;;;;5013575;28;20041;-83
2023/01/01 08:01:41;;;;;;;15.68;2.42;;;11.30;99.90;;;;;;5010380;28;20059;-84
2023/01/01 08:04:08;;;;;;;19.40;2.17;;;11.50;99.90;;;;;;4992672;28;20401;-83
2023/01/01 08:06:33;;;;;;;19.02;2.90;;;11.20;99.90;;;;;;5010314;28;20162;-83
2023/01/01 08:08:59;;;;;;;23.05;4.57;;;11.20;99.90;;;;;;5008619;28;20128;-84
2023/01/01 08:11:25;;;;;;;16.25;3.13;;;11.20;99.90;;;;;;5010488;28;20045;-84
2023/01/01 08:13:50;;;;;;;13.95;3.80;;;11.20;99.90;;;;;;5009264;28;20049;-84
2023/01/01 08:16:16;;;;;;;20.17;3.55;;;11.20;99.90;;;;;;5026129;28;20044;-84
2023/01/01 08:18:42;;;;;;;22.52;2.60;;;11.20;99.90;;;;;;5010231;28;20091;-85
2023/01/01 08:21:07;;;;;;;23.98;2.88;;;11.20;99.90;;;;;;5025438;28;20068;-85
2023/01/01 08:23:33;;;;;;;22.30;2.67;;;11.20;99.90;;;;;;4994066;28;20100;-84
2023/01/01 08:26:01;;;;;;;26.92;3.15;;;11.20;99.90;;;;;;5008360;28;20046;-83
2023/01/01 08:28:27;;;;;;;24.08;2.78;;;11.20;99.90;;;;;;5026812;28;20419;-84
2023/01/01 08:30:53;;;;;;;18.67;2.42;;;11.10;99.90;;;;;;5008721;28;20045;-84
2023/01/01 08:33:18;;;;;;;24.80;2.70;;;11.20;99.90;;;;;;5009703;28;20155;-84
2023/01/01 08:35:44;;;;;;;20.27;2.67;;;11.50;99.90;;;;;;5025743;28;20041;-84
2023/01/01 08:38:11;;;;;;;24.75;2.83;;;11.20;99.90;;;;;;5025176;28;20081;-85
2023/01/01 08:40:37;;;;;;;27.05;2.92;;;11.20;99.90;;;;;;4993447;28;20045;-85
2023/01/01 08:43:02;;;;;;;22.25;3.45;;;11.20;99.90;;;;;;5024520;28;20038;-85
2023/01/01 08:45:28;;;;;;;20.77;3.00;;;11.20;99.90;;;;;;5010233;28;20040;-84
2023/01/01 08:47:54;;;;;;;16.83;2.42;;;11.20;99.90;;;;;;5024765;28;20496;-85
2023/01/01 08:50:19;;;;;;;23.10;3.03;;;11.20;99.90;;;;;;5009845;28;20049;-84
2023/01/01 08:52:45;;;;;;;20.98;2.50;;;11.40;99.90;;;;;;5025743;28;20074;-84
2023/01/01 08:55:11;;;;;;;29.50;4.70;;;11.20;99.90;;;;;;5010132;28;20288;-84
2023/01/01 08:57:37;;;;;;;29.10;5.20;;;11.20;99.90;;;;;;4996416;28;20042;-84
2023/01/01 09:00:03;;;;;;;24.98;4.90;;;11.20;99.90;;;;;;5008920;28;20049;-84
2023/01/01 09:02:29;;;;;;;13.27;2.80;;;11.20;99.90;;;;;;5009636;28;20191;-85
2023/01/01 09:04:54;;;;;;;21.48;2.80;;;11.20;99.90;;;;;;4991996;28;20088;-90
2023/01/01 09:07:20;;;;;;;16.45;3.28;;;11.50;99.90;;;;;;5011898;28;20092;-90
2023/01/01 09:09:46;;;;;;;19.55;3.13;;;11.20;99.90;;;;;;5012745;28;20083;-90
2023/01/01 09:12:15;;;;;;;21.10;2.13;;;11.20;99.90;;;;;;5027805;28;20045;-90
2023/01/01 09:14:41;;;;;;;18.83;3.15;;;11.20;99.90;;;;;;5027738;28;20053;-89
2023/01/01 09:17:06;;;;;;;21.80;3.38;;;11.30;99.90;;;;;;4993261;28;20038;-90
2023/01/01 09:19:32;;;;;;;29.58;3.03;;;11.30;99.90;;;;;;5028504;28;20041;-89
2023/01/01 09:21:58;;;;;;;17.67;2.92;;;11.30;99.90;;;;;;5008820;28;20045;-90
2023/01/01 09:24:23;;;;;;;18.20;2.92;;;11.30;99.90;;;;;;5012158;28;20045;-90
2023/01/01 09:26:49;;;;;;;19.67;3.42;;;11.30;99.90;;;;;;5010567;28;20493;-90
2023/01/01 09:29:17;;;;;;;23.98;4.53;;;11.30;99.90;;;;;;5026430;28;20429;-89
2023/01/01 09:31:43;;;;;;;24.73;3.97;;;11.30;99.90;;;;;;5009468;28;20492;-90
2023/01/01 09:34:09;;;;;;;17.73;2.85;;;11.30;99.90;;;;;;5024719;28;20394;-90
2023/01/01 09:36:35;;;;;;;22.95;5.05;;;11.30;99.90;;;;;;5009302;28;20045;-89
2023/01/01 09:39:01;;;;;;;25.55;4.10;;;11.30;99.90;;;;;;5007601;28;20411;-87
2023/01/01 09:41:50;;;;;;;25.65;3.20;;;11.30;99.90;;;;;;5009369;28;20132;-87
2023/01/01 09:44:48;;;;;;;21.30;3.45;;;11.30;99.90;;;;;;5008405;28;20100;-87
2023/01/01 09:47:32;;;;;;;14.00;2.58;;;11.30;99.90;;;;;;5007132;28;20038;-87
2023/01/01 09:50:07;;;;;;;16.38;2.08;;;11.30;99.90;;;;;;5027028;28;20071;-87
2023/01/01 09:53:03;;;;;;;21.95;3.55;;;11.30;99.90;;;;;;5024674;28;20142;-88
2023/01/01 09:55:52;;;;;;;26.77;3.38;;;11.40;99.90;;;;;;5006688;28;20054;-88
2023/01/01 09:58:26;;;;;;;20.40;3.35;;;11.40;99.90;;;;;;5026153;28;20085;-88
2023/01/01 10:01:08;;;;;;;21.70;3.15;;;11.40;99.90;;;;;;5024322;28;20570;-86
2023/01/01 10:03:55;;;;;;;19.13;3.38;;;11.40;99.90;;;;;;5025880;28;20516;-86
2023/01/01 10:06:24;;;;;;;22.52;2.95;;;11.50;99.90;;;;;;5027177;28;20553;-87
2023/01/01 10:09:19;;;;;;;26.38;3.15;;;11.50;99.90;;;;;;5023688;28;20050;-89
2023/01/01 10:12:00;;;;;;;15.45;2.28;;;11.50;99.90;;;;;;5026717;28;20128;-87
2023/01/01 10:14:33;;;;;;;22.67;3.42;;;11.00;99.90;;;;;;5027518;28;20046;-87
2023/01/01 10:17:02;;;;;;;18.33;3.05;;;11.50;99.90;;;;;;5009412;28;20041;-87
2023/01/01 10:19:50;;;;;;;22.30;2.83;;;11.60;99.90;;;;;;5028937;28;20175;-88
2023/01/01 10:22:38;;;;;;;28.25;3.75;;;11.70;99.90;;;;;;5027437;28;20052;-89
2023/01/01 10:25:31;;;;;;;28.85;3.47;;;11.80;99.90;;;;;;5024711;28;20049;-87
2023/01/01 10:28:10;;;;;;;18.48;2.65;;;11.80;99.90;;;;;;5007290;28;20057;-91
2023/01/01 10:30:36;;;;;;;18.73;2.85;;;11.90;99.90;;;;;;5023924;28;20400;-87
2023/01/01 10:33:07;;;;;;;18.65;3.03;;;11.80;99.90;;;;;;5009529;28;20140;-86
2023/01/01 10:35:37;;;;;;;15.18;2.63;;;11.80;99.90;;;;;;5028437;28;20503;-87
2023/01/01 10:38:04;;;;;;;26.95;3.95;;;11.80;99.90;;;;;;5011318;28;20057;-85
2023/01/01 10:40:30;;;;;;;26.90;2.95;;;11.70;99.90;;;;;;4996058;28;20041;-84
2023/01/01 10:42:58;;;;;;;25.30;3.47;;;11.70;99.90;;;;;;4993959;28;20045;-84
2023/01/01 10:45:33;;;;;;;21.85;3.20;;;11.60;99.90;;;;;;5028950;28;20037;-84
2023/01/01 10:48:18;;;;;;;19.30;3.45;;;11.60;99.90;;;;;;5026801;28;20045;-83
2023/01/01 10:50:52;;;;;;;17.67;3.00;;;11.60;99.90;;;;;;5027812;28;20080;-84
2023/01/01 10:53:23;;;;;;;25.92;2.45;;;11.60;99.90;;;;;;5011594;28;20492;-85
2023/01/01 10:55:56;;;;;;;24.00;3.80;;;11.60;99.90;;;;;;5026589;28;20132;-87
2023/01/01 10:58:46;;;;;;;13.10;1.47;;;11.60;99.90;;;;;;5013235;28;20781;-83
2023/01/01 11:01:17;;;;;;;19.75;4.10;;;11.60;99.90;;;;;;5022473;28;20136;-84
2023/01/01 11:04:07;;;;;;;21.75;2.28;;;11.60;99.90;;;;;;5010537;28;20057;-85
2023/01/01 11:06:35;;;;;;;17.23;2.17;;;11.60;99.90;;;;;;5011610;28;20042;-85
2023/01/01 11:09:19;;;;;;;24.55;2.85;;;11.60;99.90;;;;;;5026236;28;20199;-85
2023/01/01 11:11:47;;;;;;;16.60;2.33;;;11.60;99.90;;;;;;5027581;28;20052;-85
2023/01/01 11:14:20;;;;;;;21.98;3.03;;;11.70;99.90;;;;;;4994681;28;20045;-84
2023/01/01 11:16:46;;;;;;;17.25;2.83;;;11.70;99.90;;;;;;5009955;28;20092;-82
2023/01/01 11:19:26;;;;;;;18.40;2.60;;;11.80;99.90;;;;;;5027634;28;20053;-85
2023/01/01 11:21:52;;;;;;;12.50;2.30;;;11.80;99.90;;;;;;5009609;28;20132;-83
2023/01/01 11:24:26;;;;;;;13.00;2.30;;;11.80;99.90;;;;;;5011396;28;20264;-85
2023/01/01 11:27:10;;;;;;;19.02;2.95;;;11.80;99.90;;;;;;5010040;28;20508;-85
2023/01/01 11:29:35;;;;;;;;;;;11.90;99.90;;;;;;5026453;28;20053;-84
2023/01/01 11:32:06;;;;;;;13.05;3.17;;;11.90;99.90;;;;;;5010928;28;19948;-85
2023/01/01 11:34:38;;;;;;;23.20;3.30;;;11.90;99.90;;;;;;5009985;28;20393;-85
2023/01/01 11:37:18;;;;;;;17.00;2.58;;;11.80;99.90;;;;;;5027592;28;20574;-85
2023/01/01 11:39:48;;;;;;;16.80;3.10;;;11.80;99.90;;;;;;5010618;28;20050;-85
2023/01/01 11:42:25;;;;;;;16.88;3.65;;;11.80;99.90;;;;;;5026552;28;20048;-85
2023/01/01 11:45:02;;;;;;;12.63;3.00;;;11.80;99.90;;;;;;5013449;28;20048;-86
2023/01/01 11:47:37;;;;;;;17.50;3.63;;;11.80;99.90;;;;;;5028909;28;20121;-87
2023/01/01 11:50:15;;;;;;;13.57;2.20;;;11.80;99.90;;;;;;5018057;28;20037;-83
2023/01/01 11:52:47;;;;;;;10.55;1.92;;;11.70;99.90;;;;;;5028042;28;20481;-85
2023/01/01 11:55:36;;;;;;;14.40;1.85;;;11.80;99.90;;;;;;5009808;28;20124;-85
2023/01/01 11:58:14;;;;;;;11.75;1.92;;;11.30;99.90;;;;;;5010923;28;20049;-84
2023/01/01 12:00:40;;;;;;;21.38;2.17;;;11.80;99.90;;;;;;5008521;28;20132;-84
2023/01/01 12:03:43;;;;;;;20.60;2.53;;;11.90;99.90;;;;;;5030478;28;20053;-83
2023/01/01 12:06:30;;;;;;;9.90;1.80;;;11.80;99.90;;;;;;5013635;28;20048;-83
2023/01/01 12:09:17;;;;;;;12.73;2.08;;;11.90;99.90;;;;;;5028801;28;20049;-85
2023/01/01 12:12:20;;;;;;;11.65;1.73;;;11.90;99.90;;;;;;5013826;28;20136;-85
2023/01/01 12:14:52;;;;;;;17.83;2.10;;;12.00;99.90;;;;;;5015972;28;20444;-88
2023/01/01 12:17:44;;;;;;;19.30;3.20;;;12.10;99.90;;;;;;5029638;28;20770;-85
2023/01/01 12:20:27;;;;;;;16.27;3.17;;;12.10;99.90;;;;;;5014430;28;20291;-88
2023/01/01 12:22:58;;;;;;;12.05;2.00;;;12.10;99.90;;;;;;5029864;28;20084;-82
2023/01/01 12:25:47;;;;;;;13.07;1.55;;;12.10;99.90;;;;;;5012443;28;20080;-83
2023/01/01 12:28:18;;;;;;;15.75;1.85;;;12.10;99.90;;;;;;5019537;28;20127;-84
2023/01/01 12:30:56;;;;;;;10.93;2.10;;;12.10;99.90;;;;;;5028876;28;20033;-85
2023/01/01 12:33:44;;;;;;;17.30;1.58;;;12.10;99.90;;;;;;5029559;28;20053;-83
2023/01/01 12:36:17;;;;;;;14.82;2.03;;;12.10;99.90;;;;;;5029527;28;20044;-84
2023/01/01 12:38:49;;;;;;;17.77;1.85;;;12.10;99.90;;;;;;5028134;28;20060;-84
2023/01/01 12:41:43;;;;;;;20.10;2.20;;;12.10;99.90;;;;;;5013607;28;20048;-84
2023/01/01 12:44:18;;;;;;;18.25;2.75;;;12.20;99.90;;;;;;5028681;28;20048;-84
2023/01/01 12:46:58;;;;;;;18.58;2.75;;;12.20;99.90;;;;;;5028257;28;20045;-84
2023/01/01 12:49:26;;;;;;;18.83;2.60;;;12.30;99.90;;;;;;5029294;28;20068;-84
2023/01/01 12:52:29;;;;;;;23.38;2.90;;;12.30;99.90;;;;;;5011707;28;20059;-83
2023/01/01 12:55:19;;;;;;;12.40;1.40;;;12.30;99.90;;;;;;5012340;28;20049;-84
2023/01/01 12:57:52;;;;;;;13.13;2.13;;;12.30;99.90;;;;;;5046175;28;20320;-83
2023/01/01 13:00:19;;;;;;;18.13;2.10;;;12.40;99.90;;;;;;5028014;28;20056;-83
2023/01/01 13:03:27;;;;;;;18.02;2.40;;;12.30;99.90;;;;;;5012692;28;20053;-85
2023/01/01 13:05:58;;;;;;;14.90;1.75;;;12.20;99.90;;;;;;4969055;28;20533;-85